createdAt,value
2023-02-09T00:00:53.037Z,64.70
2023-02-09T00:03:55.476Z,65.20
2023-02-09T00:06:59.101Z,65.20
2023-02-09T00:10:02.403Z,65.30
2023-02-09T00:13:04.282Z,65.70
2023-02-09T00:16:06.514Z,65.00
2023-02-09T00:19:09.024Z,65.30
2023-02-09T00:22:11.127Z,66.30
2023-02-09T00:25:13.088Z,66.00
2023-02-09T00:28:15.121Z,65.80
2023-02-09T00:31:17.282Z,66.20
2023-02-09T00:34:19.459Z,66.90
2023-02-09T00:37:22.992Z,66.30
2023-02-09T00:40:27.177Z,67.10
2023-02-09T00:43:29.312Z,66.40
2023-02-09T00:46:31.979Z,66.20
2023-02-09T00:49:34.240Z,66.40
2023-02-09T00:52:36.211Z,67.50
2023-02-09T00:55:40.766Z,67.60
2023-02-09T00:58:42.740Z,67.50
2023-02-09T01:01:45.620Z,67.20
2023-02-09T01:04:47.534Z,67.30
2023-02-09T01:07:52.352Z,68.10
2023-02-09T01:10:58.726Z,68.00
2023-02-09T01:14:01.512Z,68.20
2023-02-09T01:17:03.641Z,68.30
2023-02-09T01:20:08.339Z,68.20
2023-02-09T01:23:10.943Z,67.80
2023-02-09T01:26:13.840Z,67.50
2023-02-09T01:29:17.656Z,67.70
2023-02-09T01:32:19.671Z,68.00
2023-02-09T01:35:22.150Z,67.50
2023-02-09T01:38:24.160Z,67.40
2023-02-09T01:41:26.869Z,69.10
2023-02-09T01:44:31.855Z,68.70
2023-02-09T01:47:45.311Z,69.10
2023-02-09T01:50:51.682Z,69.10
2023-02-09T01:53:53.759Z,68.80
2023-02-09T01:57:04.734Z,69.50
2023-02-09T02:00:19.160Z,70.10
2023-02-09T02:03:24.173Z,70.30
2023-02-09T02:06:26.613Z,69.90
2023-02-09T02:09:31.436Z,69.80
2023-02-09T02:12:36.703Z,69.70
2023-02-09T02:16:17.462Z,70.60
2023-02-09T02:19:58.758Z,70.30
2023-02-09T02:23:29.031Z,70.10
2023-02-09T02:26:55.219Z,70.40
2023-02-09T02:30:16.237Z,70.00
2023-02-09T02:33:39.077Z,70.50
2023-02-09T02:36:59.283Z,70.50
2023-02-09T02:40:22.616Z,70.60
2023-02-09T02:43:30.394Z,70.20
2023-02-09T02:46:42.573Z,70.40
2023-02-09T02:49:58.990Z,70.60
2023-02-09T02:53:04.518Z,70.30
2023-02-09T02:56:29.824Z,70.70
2023-02-09T02:59:40.625Z,71.40
2023-02-09T03:02:50.171Z,71.10
2023-02-09T03:05:52.989Z,71.10
2023-02-09T03:08:56.950Z,70.90
2023-02-09T03:12:28.750Z,71.00
2023-02-09T03:16:08.885Z,71.20
2023-02-09T03:19:35.182Z,72.00
2023-02-09T03:22:47.159Z,71.30
2023-02-09T03:25:52.430Z,71.20
2023-02-09T03:28:59.451Z,71.40
2023-02-09T03:32:01.379Z,70.60
2023-02-09T03:35:03.780Z,71.10
2023-02-09T03:38:05.720Z,71.50
2023-02-09T03:41:08.123Z,71.40
2023-02-09T03:44:10.145Z,71.50
2023-02-09T03:47:12.195Z,71.80
2023-02-09T03:50:14.109Z,72.60
2023-02-09T03:53:15.999Z,73.70
2023-02-09T03:56:17.868Z,73.60
2023-02-09T03:59:19.838Z,74.00
2023-02-09T04:02:24.368Z,73.80
2023-02-09T04:05:26.412Z,73.30
2023-02-09T04:08:29.378Z,72.70
2023-02-09T04:11:31.509Z,73.30
2023-02-09T04:14:33.377Z,73.20
2023-02-09T04:17:35.926Z,73.80
2023-02-09T04:20:40.124Z,73.40
2023-02-09T04:23:42.514Z,73.40
2023-02-09T04:26:44.463Z,73.30
2023-02-09T04:29:46.383Z,72.70
2023-02-09T04:32:48.237Z,72.10
2023-02-09T04:35:50.908Z,73.50
2023-02-09T04:38:52.773Z,73.50
2023-02-09T04:41:54.715Z,73.50
2023-02-09T04:44:56.714Z,73.10
2023-02-09T04:47:58.684Z,73.20
2023-02-09T04:51:04.414Z,73.90
2023-02-09T04:54:06.325Z,74.40
2023-02-09T04:57:08.228Z,74.60
2023-02-09T05:00:10.833Z,74.70
2023-02-09T05:03:12.650Z,73.60
2023-02-09T05:06:15.078Z,73.90
2023-02-09T05:09:16.942Z,74.50
2023-02-09T05:12:18.936Z,74.60
2023-02-09T05:15:20.897Z,74.80
2023-02-09T05:18:23.564Z,75.30
2023-02-09T05:21:25.488Z,75.80
2023-02-09T05:24:27.536Z,74.90
2023-02-09T05:27:29.451Z,74.80
2023-02-09T05:30:31.429Z,74.10
2023-02-09T05:33:33.412Z,74.00
2023-02-09T05:36:35.305Z,73.90
2023-02-09T05:39:37.174Z,73.10
2023-02-09T05:42:39.147Z,75.00
2023-02-09T05:45:41.122Z,74.00
2023-02-09T05:48:43.058Z,75.70
2023-02-09T05:51:44.967Z,75.30
2023-02-09T05:54:48.144Z,74.90
2023-02-09T05:57:50.057Z,74.70
2023-02-09T06:00:52.206Z,74.60
2023-02-09T06:03:54.078Z,75.60
2023-02-09T06:06:56.482Z,74.90
2023-02-09T06:09:59.813Z,73.80
2023-02-09T06:13:01.668Z,74.00
2023-02-09T06:16:04.152Z,74.30
2023-02-09T06:19:07.614Z,73.90
2023-02-09T06:22:11.914Z,74.80
2023-02-09T06:25:13.971Z,75.10
2023-02-09T06:28:15.975Z,74.90
2023-02-09T06:31:18.012Z,73.70
2023-02-09T06:34:20.251Z,74.60
2023-02-09T06:37:22.173Z,76.00
2023-02-09T06:40:24.256Z,75.60
2023-02-09T06:43:29.340Z,75.90
2023-02-09T06:46:32.950Z,75.60
2023-02-09T06:49:34.946Z,75.50
2023-02-09T06:52:37.415Z,76.30
2023-02-09T06:55:39.364Z,75.50
2023-02-09T06:58:41.879Z,74.70
2023-02-09T07:01:43.910Z,74.70
2023-02-09T07:04:46.040Z,75.40
2023-02-09T07:07:48.216Z,75.80
2023-02-09T07:10:50.299Z,75.10
2023-02-09T07:13:54.987Z,76.10
2023-02-09T07:16:56.962Z,76.70
2023-02-09T07:19:59.093Z,75.20
2023-02-09T07:23:01.570Z,76.50
2023-02-09T07:26:08.652Z,74.90
2023-02-09T07:29:12.790Z,74.90
2023-02-09T07:32:15.676Z,74.70
2023-02-09T07:35:18.216Z,74.90
2023-02-09T07:38:20.376Z,75.70
2023-02-09T07:41:23.983Z,74.30
2023-02-09T07:44:26.183Z,74.40
2023-02-09T07:47:28.202Z,74.40
2023-02-09T07:50:30.174Z,73.60
2023-02-09T07:53:32.739Z,73.60
2023-02-09T07:56:34.941Z,72.70
2023-02-09T07:59:37.181Z,70.20
2023-02-09T08:02:39.584Z,67.80
2023-02-09T08:06:06.596Z,65.40
2023-02-09T08:09:09.683Z,62.20
2023-02-09T08:12:12.978Z,60.90
2023-02-09T08:15:17.246Z,59.20
2023-02-09T08:18:23.833Z,58.60
2023-02-09T08:21:28.375Z,57.40
2023-02-09T08:24:30.408Z,55.80
2023-02-09T08:27:32.608Z,55.40
2023-02-09T08:30:35.254Z,55.00
2023-02-09T08:33:37.334Z,54.30
2023-02-09T08:36:41.464Z,53.50
2023-02-09T08:39:46.151Z,53.30
2023-02-09T08:42:48.374Z,52.70
2023-02-09T08:45:51.738Z,53.30
2023-02-09T08:48:54.058Z,52.20
2023-02-09T08:51:56.125Z,51.50
2023-02-09T08:54:58.125Z,52.60
2023-02-09T08:58:00.701Z,53.30
2023-02-09T09:01:03.165Z,53.50
2023-02-09T09:04:05.437Z,54.60
2023-02-09T09:07:07.523Z,54.70
2023-02-09T09:10:10.524Z,54.00
2023-02-09T09:13:15.020Z,52.90
2023-02-09T09:16:19.236Z,51.60
2023-02-09T09:19:21.627Z,50.70
2023-02-09T09:22:24.172Z,50.80
2023-02-09T09:25:26.229Z,49.60
2023-02-09T09:28:28.988Z,49.10
2023-02-09T09:31:31.392Z,48.00
2023-02-09T09:34:33.754Z,46.90
2023-02-09T09:37:38.093Z,47.10
2023-02-09T09:40:41.016Z,47.50
2023-02-09T09:43:43.273Z,46.20
2023-02-09T09:46:50.681Z,47.00
2023-02-09T09:49:52.766Z,46.70
2023-02-09T09:53:01.497Z,47.30
2023-02-09T09:56:08.164Z,47.70
2023-02-09T09:59:17.923Z,48.50
2023-02-09T10:02:23.010Z,49.30
2023-02-09T10:05:30.626Z,49.50
2023-02-09T10:08:48.058Z,50.10
2023-02-09T10:11:59.216Z,50.30
2023-02-09T10:15:19.226Z,51.50
2023-02-09T10:18:21.849Z,51.40
2023-02-09T10:21:25.931Z,50.90
2023-02-09T10:24:32.949Z,51.60
2023-02-09T10:27:38.765Z,51.60
2023-02-09T10:30:40.724Z,50.70
2023-02-09T10:33:45.857Z,50.60
2023-02-09T10:37:04.980Z,49.10
2023-02-09T10:40:17.500Z,48.10
2023-02-09T10:43:34.706Z,48.10
2023-02-09T10:46:38.484Z,47.60
2023-02-09T10:49:40.513Z,46.40
2023-02-09T10:52:54.402Z,46.50
2023-02-09T10:56:24.480Z,46.60
2023-02-09T10:59:26.364Z,47.20
2023-02-09T11:02:39.230Z,45.80
2023-02-09T11:05:41.416Z,45.70
2023-02-09T11:09:05.879Z,45.80
2023-02-09T11:12:14.414Z,46.30
2023-02-09T11:15:25.632Z,45.80
2023-02-09T11:18:32.162Z,46.20
2023-02-09T11:21:47.782Z,48.20
2023-02-09T11:25:16.487Z,47.00
2023-02-09T11:28:40.331Z,47.10
2023-02-09T11:32:19.465Z,46.30
2023-02-09T11:35:26.370Z,45.50
2023-02-09T11:38:44.147Z,46.20
2023-02-09T11:41:52.127Z,45.70
2023-02-09T11:45:00.437Z,46.40
2023-02-09T11:48:23.211Z,46.50
2023-02-09T12:03:14.298Z,47.90
2023-02-09T12:06:16.590Z,48.20
2023-02-09T12:09:30.344Z,49.00
2023-02-09T12:12:54.526Z,48.30
2023-02-09T12:16:07.312Z,47.70
2023-02-09T12:19:33.071Z,49.10
2023-02-09T12:22:34.930Z,49.10
2023-02-09T12:26:01.264Z,48.90
2023-02-09T12:29:33.179Z,48.20
2023-02-09T12:32:44.191Z,48.80
2023-02-09T12:36:00.489Z,48.10
2023-02-09T12:39:25.355Z,47.80
2023-02-09T12:42:30.027Z,48.60
2023-02-09T12:45:34.714Z,49.70
2023-02-09T12:49:01.430Z,48.40
2023-02-09T12:52:03.234Z,47.40
2023-02-09T12:55:19.528Z,48.60
2023-02-09T12:58:38.626Z,48.40
2023-02-09T13:02:03.825Z,47.90
2023-02-09T13:05:17.089Z,48.60
2023-02-09T13:08:28.452Z,49.40
2023-02-09T13:11:43.210Z,48.30
2023-02-09T13:14:49.774Z,47.80
2023-02-09T13:18:30.727Z,49.00
2023-02-09T13:21:47.387Z,47.70
2023-02-09T13:24:58.471Z,48.10
2023-02-09T13:28:19.203Z,48.00
2023-02-09T13:31:33.416Z,47.10
2023-02-09T13:34:52.234Z,48.10
2023-02-09T13:37:59.840Z,47.40
2023-02-09T13:41:02.302Z,47.20
2023-02-09T13:44:18.437Z,47.00
2023-02-09T13:47:21.257Z,47.10
2023-02-09T13:50:25.814Z,48.60
2023-02-09T13:53:29.911Z,47.80
2023-02-09T13:56:33.277Z,45.50
2023-02-09T13:59:35.690Z,46.00
2023-02-09T14:02:46.941Z,46.00
2023-02-09T14:06:18.843Z,46.70
2023-02-09T14:09:27.127Z,47.10
2023-02-09T14:12:44.059Z,47.60
2023-02-09T14:15:51.034Z,46.70
2023-02-09T14:18:54.274Z,47.20
2023-02-09T14:21:56.331Z,47.60
2023-02-09T14:24:58.203Z,47.70
2023-02-09T14:28:00.287Z,48.40
2023-02-09T14:31:02.478Z,47.20
2023-02-09T14:34:04.530Z,46.20
2023-02-09T14:37:15.878Z,46.50
2023-02-09T14:40:20.903Z,47.40
2023-02-09T14:43:25.073Z,47.40
2023-02-09T14:46:27.152Z,46.70
2023-02-09T14:49:31.533Z,47.30
2023-02-09T14:52:34.703Z,47.90
2023-02-09T14:55:37.011Z,47.60
2023-02-09T14:58:39.015Z,46.60
2023-02-09T15:01:40.936Z,46.30
2023-02-09T15:04:43.207Z,47.20
2023-02-09T15:07:48.990Z,47.40
2023-02-09T15:10:55.147Z,49.10
2023-02-09T15:13:59.894Z,48.50
2023-02-09T15:17:01.868Z,47.30
2023-02-09T15:20:04.260Z,47.30
2023-02-09T15:23:06.426Z,47.40
2023-02-09T15:26:15.114Z,48.40
2023-02-09T15:29:17.071Z,48.60
2023-02-09T15:32:20.282Z,49.80
2023-02-09T15:35:25.050Z,50.20
2023-02-09T15:38:27.344Z,49.80
2023-02-09T15:41:29.323Z,48.10
2023-02-09T15:44:31.308Z,49.50
2023-02-09T15:47:33.414Z,49.00
2023-02-09T15:50:40.020Z,49.10
2023-02-09T15:53:43.088Z,49.80
2023-02-09T15:56:44.919Z,50.00
2023-02-09T15:59:47.193Z,50.70
2023-02-09T16:02:49.215Z,50.20
2023-02-09T16:05:57.038Z,51.00
2023-02-09T16:08:59.105Z,51.60
2023-02-09T16:12:01.148Z,51.90
2023-02-09T16:15:03.130Z,51.90
2023-02-09T16:18:05.217Z,51.90
2023-02-09T16:21:07.231Z,52.20
2023-02-09T16:24:34.415Z,51.00
2023-02-09T16:27:36.204Z,51.60
2023-02-09T16:30:49.020Z,51.70
2023-02-09T16:33:51.825Z,53.40
2023-02-09T16:36:53.974Z,53.80
2023-02-09T16:39:56.466Z,53.90
2023-02-09T16:43:00.269Z,54.40
2023-02-09T16:46:04.704Z,56.00
2023-02-09T16:49:07.086Z,55.60
2023-02-09T16:52:21.327Z,55.80
2023-02-09T16:55:26.877Z,56.30
2023-02-09T16:58:28.905Z,56.90
2023-02-09T17:01:30.944Z,57.20
2023-02-09T17:04:33.037Z,57.90
2023-02-09T17:07:52.295Z,59.20
2023-02-09T17:10:56.669Z,59.10
2023-02-09T17:13:58.625Z,58.60
2023-02-09T17:17:02.985Z,59.20
2023-02-09T17:20:05.359Z,60.20
2023-02-09T17:23:07.429Z,60.80
2023-02-09T17:26:11.202Z,60.40
2023-02-09T17:29:13.213Z,61.00
2023-02-09T17:32:15.875Z,60.50
2023-02-09T17:35:34.452Z,62.00
2023-02-09T17:38:43.168Z,62.50
2023-02-09T17:41:46.220Z,62.00
2023-02-09T17:44:48.815Z,62.00
2023-02-09T17:47:53.360Z,62.00
2023-02-09T17:50:58.468Z,63.00
2023-02-09T17:54:01.618Z,62.70
2023-02-09T17:57:03.687Z,63.10
2023-02-09T18:00:06.230Z,63.30
2023-02-09T18:03:14.314Z,63.20
2023-02-09T18:06:18.732Z,63.30
2023-02-09T18:09:20.718Z,63.00
2023-02-09T18:12:25.280Z,62.80
2023-02-09T18:15:36.994Z,64.10
2023-02-09T18:18:38.889Z,64.80
2023-02-09T18:21:57.796Z,64.30
2023-02-09T18:24:59.670Z,65.20
2023-02-09T18:28:02.384Z,65.30
2023-02-09T18:31:04.700Z,64.80
2023-02-09T18:34:06.834Z,64.80
2023-02-09T18:37:11.239Z,65.00
2023-02-09T18:40:13.609Z,65.00
2023-02-09T18:43:15.528Z,65.50
2023-02-09T18:46:17.751Z,66.00
2023-02-09T18:49:19.655Z,66.30
2023-02-09T18:52:21.724Z,65.30
2023-02-09T18:55:25.852Z,66.30
2023-02-09T18:58:27.685Z,66.30
2023-02-09T19:01:29.554Z,66.20
2023-02-09T19:04:31.615Z,66.50
2023-02-09T19:07:35.194Z,66.00
2023-02-09T19:10:37.178Z,66.30
2023-02-09T19:13:39.062Z,67.50
2023-02-09T19:16:41.430Z,68.10
2023-02-09T19:19:44.938Z,67.90
2023-02-09T19:22:47.234Z,68.10
2023-02-09T19:25:49.714Z,68.80
2023-02-09T19:28:52.262Z,68.30
2023-02-09T19:31:55.192Z,68.60
2023-02-09T19:34:57.272Z,68.30
2023-02-09T19:37:59.526Z,68.40
2023-02-09T19:41:10.756Z,69.00
2023-02-09T19:44:13.256Z,69.00
2023-02-09T19:47:16.372Z,69.10
2023-02-09T19:50:18.926Z,68.60
2023-02-09T19:53:21.823Z,69.50
2023-02-09T19:56:23.944Z,68.80
2023-02-09T19:59:25.992Z,69.20
2023-02-09T20:02:28.089Z,69.40
2023-02-09T20:05:30.696Z,68.40
2023-02-09T20:08:32.775Z,69.30
2023-02-09T20:11:34.957Z,69.40
2023-02-09T20:14:37.181Z,68.60
2023-02-09T20:17:39.214Z,69.00
2023-02-09T20:20:41.775Z,68.60
2023-02-09T20:23:45.714Z,68.40
2023-02-09T20:26:49.283Z,68.40
2023-02-09T20:29:51.399Z,68.70
2023-02-09T20:32:53.655Z,69.90
2023-02-09T20:35:56.861Z,69.50
2023-02-09T20:38:59.223Z,70.00
2023-02-09T20:42:01.379Z,69.30
2023-02-09T20:45:05.795Z,69.00
2023-02-09T20:48:07.851Z,69.40
2023-02-09T20:51:09.835Z,69.50
2023-02-09T20:54:12.829Z,69.70
2023-02-09T20:57:15.019Z,69.80
2023-02-09T21:00:18.415Z,70.70
2023-02-09T21:03:20.506Z,69.90
2023-02-09T21:06:23.609Z,69.50
2023-02-09T21:09:26.046Z,69.90
2023-02-09T21:12:28.080Z,71.70
2023-02-09T21:15:30.132Z,72.50
2023-02-09T21:18:32.164Z,71.70
2023-02-09T21:21:34.160Z,71.70
2023-02-09T21:24:39.123Z,72.30
2023-02-09T21:27:41.318Z,72.20
2023-02-09T21:30:44.024Z,72.40
2023-02-09T21:33:46.190Z,72.20
2023-02-09T21:36:48.157Z,72.40
2023-02-09T21:39:49.994Z,71.90
2023-02-09T21:42:51.859Z,72.00
2023-02-09T21:45:53.714Z,72.40
2023-02-09T21:48:55.708Z,72.80
2023-02-09T21:52:00.344Z,73.20
2023-02-09T21:55:03.259Z,73.30
2023-02-09T21:58:07.612Z,72.80
2023-02-09T22:01:09.908Z,73.40
2023-02-09T22:04:11.913Z,72.80
2023-02-09T22:07:14.856Z,73.40
2023-02-09T22:10:17.551Z,73.60
2023-02-09T22:13:19.826Z,72.60
2023-02-09T22:16:22.891Z,72.80
2023-02-09T22:19:25.159Z,73.20
2023-02-09T22:22:27.116Z,72.90
2023-02-09T22:25:30.242Z,72.60
2023-02-09T22:28:35.157Z,73.20
2023-02-09T22:31:38.070Z,73.90
2023-02-09T22:34:39.916Z,72.40
2023-02-09T22:37:41.829Z,72.30
2023-02-09T22:40:43.703Z,72.50
2023-02-09T22:44:19.173Z,72.80
2023-02-09T22:47:21.064Z,73.30
2023-02-09T22:50:23.030Z,72.70
2023-02-09T22:53:27.096Z,72.90
2023-02-09T22:56:30.134Z,73.00
2023-02-09T22:59:32.228Z,72.80
2023-02-09T23:02:34.097Z,72.90
2023-02-09T23:05:35.846Z,72.20
2023-02-09T23:08:37.611Z,72.30
2023-02-09T23:11:39.447Z,71.80
2023-02-09T23:14:43.583Z,71.60
2023-02-09T23:17:45.407Z,72.40
2023-02-09T23:20:47.406Z,72.60
2023-02-09T23:23:49.670Z,72.70
2023-02-09T23:26:52.988Z,72.90
2023-02-09T23:29:54.998Z,72.80
2023-02-09T23:32:56.853Z,72.90
2023-02-09T23:35:58.908Z,72.90
2023-02-09T23:39:04.054Z,73.20
2023-02-09T23:42:05.911Z,72.60
2023-02-09T23:45:08.197Z,72.80
2023-02-09T23:48:10.193Z,72.90
2023-02-09T23:51:17.752Z,72.80
2023-02-09T23:54:22.082Z,72.90
2023-02-09T23:57:23.957Z,72.70
